Latest Weather Observations for Morawa Airport

IDW60801

Issued at 10:23 am WST Sunday 23 September 2018 (issued every 10 minutes, with the page automatically refreshed every 10 minutes)

About weather observations | Map of weather stations | Latest weather observations for WA | Other Formats
Station Details ID: 008296 Name: MORAWA AIRPORT Lat: -29.20 Lon: 116.02 Height: 271.4 m
Data from the previous 72 hours. | See also: Recent months at Morawa Airport
Date/Time
WST
Temp
°C
App
Temp
°C
Dew
Point
°C
Rel
Hum
%
Delta-T
°C
Wind Press
QNH
hPa
Press
MSL
hPa
Rain since
9am
mm
Dir  Spd
km/h
Gust
km/h
Spd
kts
Gust
kts
23/10:00am 27.0 24.0 4.1 23 11.6 N 9 17 5 9 1020.6 1020.3 0.0
23/09:30am 25.5 23.2 4.6 26 10.6 NNE 6 11 3 6 1020.9 1020.6 0.0
23/09:00am 23.1 20.5 6.0 33 8.8 NE 9 11 5 6 1020.9 1020.6 0.0
23/08:30am 20.9 19.2 5.7 37 7.7 NNE 4 6 2 3 1020.9 1020.6 0.0
23/08:00am 18.5 16.9 6.4 45 6.1 NNE 4 6 2 3 1020.7 1020.4 0.0
23/07:30am 16.3 15.8 7.8 57 4.3 CALM 0 6 0 3 1020.4 1020.1 0.0
23/07:00am 12.6 11.8 8.1 74 2.2 N 2 2 1 1 1020.3 1020.0 0.0
23/06:30am 10.2 8.3 7.6 84 1.3 N 7 9 4 5 1020.0 1019.7 0.0
23/06:00am 9.6 7.6 7.2 85 1.1 N 7 9 4 5 1019.8 1019.5 0.0
23/05:30am 10.4 9.7 6.9 79 1.7 CALM 0 0 0 0 1019.6 1019.2 0.0
23/05:00am 11.2 8.9 7.3 77 1.9 NNW 9 9 5 5 1019.5 1019.1 0.0
23/04:30am 10.8 9.9 7.9 82 1.4 NNW 2 4 1 2 1019.6 1019.2 0.0
23/04:00am 11.7 10.4 7.6 76 2.0 NNW 4 6 2 3 1019.5 1019.1 0.0
23/03:30am 11.6 9.7 7.7 77 1.9 NNW 7 9 4 5 1019.4 1019.0 0.0
23/03:00am 11.6 9.8 8.1 79 1.7 NNW 7 9 4 5 1019.5 1019.1 0.0
23/02:30am 11.6 10.5 8.6 82 1.5 NW 4 4 2 2 1019.7 1019.3 0.0
23/02:00am 11.9 10.4 8.4 79 1.7 NW 6 7 3 4 1019.9 1019.6 0.0
23/01:30am 12.2 11.1 8.5 78 1.9 NNW 4 6 2 3 1020.1 1019.8 0.0
23/01:00am 13.0 11.5 8.5 74 2.3 NNW 6 9 3 5 1020.4 1020.1 0.0
23/12:30am 13.5 11.9 8.8 73 2.4 NNW 7 9 4 5 1020.4 1020.1 0.0
23/12:00am 13.3 11.8 8.6 73 2.4 NNW 6 7 3 4 1020.5 1020.2 0.0
 
Date/Time
WST
Temp
°C
App
Temp
°C
Dew
Point
°C
Rel
Hum
%
Delta-T
°C
Wind Press
QNH
hPa
Press
MSL
hPa
Rain since
9am
mm
Dir  Spd
km/h
Gust
km/h
Spd
kts
Gust
kts
22/11:30pm 13.5 12.0 8.6 72 2.5 NNW 6 7 3 4 1020.5 1020.2 0.0
22/11:00pm 14.7 13.2 8.6 67 3.1 NNW 6 6 3 3 1020.7 1020.4 0.0
22/10:30pm 16.3 15.1 9.5 64 3.6 E 6 7 3 4 1020.6 1020.3 0.0
22/10:00pm 17.5 16.2 9.2 58 4.4 SSE 6 7 3 4 1020.7 1020.4 0.0
22/09:30pm 18.8 17.8 9.0 53 5.2 SW 4 7 2 4 1020.5 1020.2 0.0
22/09:00pm 19.2 18.3 9.1 52 5.4 SSW 4 6 2 3 1020.5 1020.2 0.0
22/08:30pm 20.3 18.4 8.9 48 6.1 SW 9 15 5 8 1020.4 1020.1 0.0
22/08:00pm 20.6 18.6 8.6 46 6.4 SW 9 13 5 7 1020.2 1019.9 0.0
22/07:30pm 21.1 18.6 8.4 44 6.7 WSW 11 17 6 9 1020.0 1019.7 0.0
22/07:00pm 21.8 18.2 6.9 38 7.7 W 15 24 8 13 1019.8 1019.5 0.0
22/06:30pm 23.2 18.2 4.7 30 9.3 WSW 20 28 11 15 1019.3 1018.9 0.0
22/06:00pm 24.5 18.5 3.2 25 10.5 WSW 24 37 13 20 1018.7 1018.3 0.0
22/05:30pm 25.8 19.7 0.5 19 12.0 W 22 39 12 21 1018.3 1017.9 0.0
22/05:00pm 27.3 21.2 -3.5 13 13.7 W 19 28 10 15 1017.6 1017.2 0.0
22/04:30pm 28.2 22.7 -5.0 11 14.5 W 15 26 8 14 1016.9 1016.6 0.0
22/04:00pm 29.2 22.6 -6.9 9 15.4 WNW 20 24 11 13 1016.5 1016.1 0.0
22/03:30pm 29.9 23.2 -7.9 8 15.9 NW 20 32 11 17 1016.3 1015.9 0.0
22/03:00pm 29.9 23.3 -9.6 7 16.1 NNW 19 37 10 20 1016.2 1015.8 0.0
22/02:30pm 31.7 25.2 -8.3 7 17.0 NW 19 35 10 19 1016.2 1015.8 0.0
22/02:00pm 31.1 24.3 -8.7 7 16.7 NW 20 33 11 18 1016.5 1016.1 0.0
22/01:30pm 31.3 24.7 -8.6 7 16.8 N 19 32 10 17 1017.0 1016.7 0.0
22/01:00pm 30.6 24.5 -7.4 8 16.2 NNW 17 26 9 14 1017.2 1016.9 0.0
22/12:30pm 30.3 25.1 -6.1 9 15.9 NNE 13 20 7 11 1017.9 1017.5 0.0
22/12:00pm 29.8 24.6 -6.4 9 15.6 N 13 22 7 12 1018.4 1018.0 0.0
22/11:30am 29.2 23.9 -6.9 9 15.4 NNW 13 22 7 12 1018.9 1018.5 0.0
22/11:00am 27.7 24.8 -1.3 15 13.4 W 4 7 2 4 1019.3 1018.9 0.0
22/10:30am 26.0 23.0 0.6 19 12.1 WNW 6 11 3 6 1019.6 1019.2 0.0
22/10:00am 23.6 20.7 1.3 23 10.5 NNW 6 9 3 5 1020.0 1019.7 0.0
22/09:30am 21.2 18.8 4.3 33 8.3 SW 6 11 3 6 1020.4 1020.1 0.0
22/09:00am 19.6 17.1 4.9 38 7.2 SW 7 11 4 6 1020.6 1020.3 0.0
22/08:30am 17.0 15.4 6.5 50 5.2 SW 4 6 2 3 1020.5 1020.2 0.0
22/08:00am 15.3 13.9 7.1 58 4.1 E 4 7 2 4 1020.1 1019.8 0.0
22/07:30am 13.7 12.9 8.1 69 2.8 SE 2 6 1 3 1020.0 1019.7 0.0
22/07:00am 10.3 9.9 8.1 86 1.1 CALM 0 0 0 0 1019.7 1019.3 0.0
22/06:30am 6.7 5.7 5.7 93 0.5 CALM 0 0 0 0 1019.8 1019.5 0.0
22/06:00am 6.6 4.9 5.9 95 0.3 W 4 6 2 3 1019.7 1019.3 0.0
22/05:30am 6.7 5.8 6.1 96 0.3 CALM 0 0 0 0 1019.5 1019.1 0.0
22/05:00am 6.3 5.2 4.9 91 0.6 CALM 0 2 0 1 1019.6 1019.2 0.0
22/04:30am 7.7 6.2 6.6 93 0.5 W 4 6 2 3 1019.3 1018.9 0.0
22/04:00am 8.1 6.5 7.8 98 0.1 WSW 6 6 3 3 1019.4 1019.0 0.0
22/03:30am 7.6 6.7 6.1 90 0.7 CALM 0 0 0 0 1019.6 1019.2 0.0
22/03:00am 8.2 6.6 6.5 89 0.8 W 4 4 2 2 1019.7 1019.3 0.0
22/02:30am 9.0 7.1 6.8 86 1.0 W 6 7 3 4 1019.8 1019.5 0.0
22/02:00am 9.7 7.9 7.3 85 1.2 WSW 6 6 3 3 1020.1 1019.8 0.0
22/01:30am 8.9 7.6 5.8 81 1.4 SSW 2 2 1 1 1020.1 1019.8 0.0
22/01:00am 9.6 8.3 6.0 78 1.7 SSW 2 4 1 2 1020.1 1019.8 0.0
22/12:30am 10.4 9.1 6.0 74 2.1 SSW 2 4 1 2 1020.2 1019.9 0.0
22/12:00am 11.0 9.7 6.2 72 2.3 W 2 4 1 2 1020.5 1020.2 0.0
 
Date/Time
WST
Temp
°C
App
Temp
°C
Dew
Point
°C
Rel
Hum
%
Delta-T
°C
Wind Press
QNH
hPa
Press
MSL
hPa
Rain since
9am
mm
Dir  Spd
km/h
Gust
km/h
Spd
kts
Gust
kts
21/11:30pm 11.9 10.3 6.2 68 2.7 SSW 4 4 2 2 1020.3 1020.0 0.0
21/11:00pm 12.7 11.1 6.3 65 3.1 S 4 6 2 3 1020.6 1020.3 0.0
21/10:30pm 14.2 12.7 6.6 60 3.7 S 4 6 2 3 1020.7 1020.4 0.0
21/10:00pm 15.1 13.1 6.4 56 4.3 SSW 6 7 3 4 1020.9 1020.6 0.0
21/09:30pm 16.0 13.8 6.4 53 4.7 SSW 7 9 4 5 1020.9 1020.6 0.0
21/09:00pm 17.0 14.4 6.2 49 5.3 SSW 9 11 5 6 1020.8 1020.5 0.0
21/08:30pm 18.0 15.0 5.9 45 6.0 SW 11 15 6 8 1020.7 1020.4 0.0
21/08:00pm 19.3 15.6 4.3 37 7.3 SW 13 17 7 9 1020.4 1020.1 0.0
21/07:30pm 20.8 17.2 3.1 31 8.5 SW 11 17 6 9 1019.9 1019.6 0.0
21/07:00pm 22.1 18.1 0.6 24 9.9 SW 11 19 6 10 1019.5 1019.1 0.0
21/06:30pm 23.4 19.0 -2.2 18 11.3 WSW 11 20 6 11 1019.2 1018.8 0.0
21/06:00pm 25.5 19.6 -2.1 16 12.4 SW 19 28 10 15 1018.7 1018.3 0.0
21/05:30pm 28.1 23.5 -7.7 9 14.9 NW 9 15 5 8 1018.4 1018.0 0.0
21/05:00pm 29.1 24.5 -8.5 8 15.5 WNW 9 20 5 11 1018.2 1017.8 0.0
21/04:30pm 29.2 23.8 -8.4 8 15.6 NW 13 20 7 11 1018.3 1017.9 0.0
21/04:00pm 29.3 25.2 -8.3 8 15.6 NW 6 9 3 5 1018.3 1017.9 0.0
21/03:30pm 30.1 25.1 -7.7 8 16.0 NNW 11 20 6 11 1018.2 1017.8 0.0
21/03:00pm 29.7 24.3 -8.0 8 15.8 NW 13 24 7 13 1018.3 1017.9 0.0
21/02:30pm 29.6 23.8 -8.1 8 15.8 NNW 15 28 8 15 1018.5 1018.1 0.0
21/02:00pm 29.5 23.0 -8.2 8 15.7 WNW 19 26 10 14 1018.7 1018.3 0.0
21/01:30pm 29.1 23.3 -8.5 8 15.6 NNW 15 32 8 17 1019.0 1018.6 0.0
21/01:00pm 29.3 23.7 -6.8 9 15.4 NW 15 32 8 17 1019.1 1018.7 0.0
21/12:30pm 28.5 22.4 -7.4 9 15.1 NNW 17 30 9 16 1019.7 1019.3 0.0
21/12:00pm 29.1 23.4 -7.0 9 15.3 NW 15 26 8 14 1020.2 1019.9 0.0
21/11:30am 28.4 21.7 -7.5 9 15.0 NNW 20 33 11 18 1020.4 1020.1 0.0
21/11:00am 28.2 21.7 -6.3 10 14.7 N 20 37 11 20 1020.6 1020.3 0.0
21/10:30am 27.3 21.4 -5.7 11 14.1 N 17 26 9 14 1021.0 1020.7 0.0
21/10:00am 25.3 21.9 2.1 22 11.2 N 9 15 5 8 1021.4 1021.0 0.0
21/09:30am 23.2 20.6 4.2 29 9.5 NNE 7 11 4 6 1021.6 1021.2 0.0
21/09:00am 20.1 17.7 4.2 35 7.7 NE 6 7 3 4 1021.7 1021.3 0.0
21/08:30am 17.1 14.9 5.4 46 5.7 NE 6 9 3 5 1021.8 1021.4 0.0
21/08:00am 14.8 12.7 5.6 54 4.4 NE 6 11 3 6 1021.6 1021.2 0.0
21/07:30am 12.2 10.7 6.9 70 2.6 NE 4 7 2 4 1021.4 1021.0 0.0
21/07:00am 9.8 8.8 7.2 84 1.2 NNE 2 6 1 3 1020.9 1020.6 0.0
21/06:30am 6.2 5.0 4.7 90 0.7 CALM 0 0 0 0 1020.6 1020.3 0.0
21/06:00am 5.9 4.7 4.5 91 0.6 CALM 0 0 0 0 1020.3 1020.0 0.0
21/05:30am 6.4 4.8 4.6 88 0.8 E 2 4 1 2 1020.4 1020.1 0.0
21/05:00am 6.8 5.3 5.1 89 0.8 SSE 2 6 1 3 1020.1 1019.8 0.0
21/04:30am 7.4 5.7 5.9 90 0.7 SSE 4 6 2 3 1019.7 1019.3 0.0
21/04:00am 7.4 6.0 5.7 89 0.8 ENE 2 4 1 2 1019.4 1019.0 0.0
21/03:30am 7.4 6.2 4.4 81 1.3 CALM 0 0 0 0 1019.4 1019.0 0.0
21/03:00am 8.7 7.3 5.4 80 1.5 SSW 2 6 1 3 1019.8 1019.5 0.0
21/02:30am 8.2 6.8 5.3 82 1.3 SW 2 4 1 2 1020.1 1019.8 0.0
21/02:00am 9.2 8.2 5.4 77 1.7 CALM 0 2 0 1 1020.2 1019.9 0.0
21/01:30am 9.4 7.6 5.2 75 1.9 SW 4 6 2 3 1020.4 1020.1 0.0
21/01:00am 10.4 8.9 5.2 70 2.4 SW 2 6 1 3 1020.6 1020.3 0.0
21/12:30am 12.0 10.2 5.4 64 3.1 SW 4 6 2 3 1020.9 1020.6 0.0
21/12:00am 12.9 10.8 5.6 61 3.5 SSW 6 7 3 4 1020.9 1020.6 0.0
 
Date/Time
WST
Temp
°C
App
Temp
°C
Dew
Point
°C
Rel
Hum
%
Delta-T
°C
Wind Press
QNH
hPa
Press
MSL
hPa
Rain since
9am
mm
Dir  Spd
km/h
Gust
km/h
Spd
kts
Gust
kts
20/11:30pm 14.0 11.4 5.9 58 3.9 SSW 9 13 5 7 1021.3 1020.9 0.0
20/11:00pm 13.2 11.1 5.9 61 3.5 SSW 6 7 3 4 1021.4 1021.0 0.0
20/10:30pm 14.7 12.1 6.3 57 4.1 SSW 9 15 5 8 1021.5 1021.1 0.0
20/10:00pm 14.1 11.9 6.2 59 3.8 SSW 7 9 4 5 1021.8 1021.4 0.0
20/09:30pm 15.8 12.5 6.5 54 4.6 SSW 13 17 7 9 1021.6 1021.2 0.0
20/09:00pm 16.9 13.2 6.4 50 5.2 SSW 15 24 8 13 1021.5 1021.1 0.0
20/08:30pm 17.6 14.1 5.5 45 5.9 SW 13 20 7 11 1021.1 1020.8 0.0
20/08:00pm 15.9 13.1 2.3 40 6.2 NNW 6 22 3 12 1020.7 1020.4 0.0
20/07:30pm 15.8 14.2 2.2 40 6.2 CALM 0 0 0 0 1020.1 1019.8 0.0
20/07:00pm 17.3 15.7 2.5 37 6.8 CALM 0 0 0 0 1019.7 1019.3 0.0
20/06:30pm 20.5 18.4 1.9 29 8.7 NNE 2 4 1 2 1019.5 1019.1 0.0
20/06:00pm 24.7 22.3 -0.4 19 11.6 NNE 2 4 1 2 1019.4 1019.0 0.0
20/05:30pm 26.2 22.8 -2.4 15 12.9 N 6 9 3 5 1019.3 1018.9 0.0
20/05:00pm 26.8 23.1 -2.9 14 13.3 NNW 7 13 4 7 1019.3 1018.9 0.0
20/04:30pm - - - - - NNE 7 11 4 6 1019.2 1018.8 0.0
20/04:00pm 27.6 24.2 -2.3 14 13.6 NE 6 11 3 6 1019.0 1018.6 0.0
20/03:30pm 27.7 23.3 -2.2 14 13.7 NNE 11 17 6 9 1019.1 1018.7 0.0
20/03:00pm 27.2 23.8 -1.7 15 13.3 SW 6 15 3 8 1019.4 1019.0 0.0
20/02:30pm 26.5 22.1 -2.2 15 13.0 NNE 11 20 6 11 1019.7 1019.3 0.0
20/02:00pm 27.1 23.6 -1.7 15 13.2 NNE 7 20 4 11 1020.0 1019.7 0.0
20/01:30pm 26.3 21.6 -1.5 16 12.7 ENE 13 28 7 15 1020.4 1020.1 0.0
20/01:00pm 26.7 21.8 -0.3 17 12.6 NE 15 24 8 13 1020.7 1020.4 0.0
20/12:30pm 25.9 20.9 -1.0 17 12.4 NE 15 22 8 12 1021.3 1020.9 0.0
20/12:00pm 25.5 20.7 0.2 19 11.8 NNE 15 24 8 13 1021.8 1021.4 0.0
20/11:30am 25.0 19.6 1.2 21 11.3 NE 19 28 10 15 1022.2 1021.8 0.0
20/11:00am 25.1 19.7 1.3 21 11.3 NE 19 30 10 16 1022.7 1022.3 0.0
20/10:30am 23.6 18.1 1.9 24 10.4 NE 20 32 11 17 1023.2 1022.9 0.0

Other Formats:

Comma delimited format used in spreadsheet applications
http://www.bom.gov.au/fwo/IDW60801/IDW60801.94417.axf

JavaScript Object Notation format (JSON) in row-major order
http://www.bom.gov.au/fwo/IDW60801/IDW60801.94417.json